Terminal Aerodrome Forecast
Issued by NWS Grand Forks, ND

Home | Current Version | Previous Version | Text Only | Print | Product List | Glossary Off
Versions: 1 2 3 4 5 6 7 8 9 10 11 12 13 14 15 16

000
FTUS43 KFGF 222300
TAFGFK
TAF
KGFK 222335Z 2300/2324 08008KT P6SM -RA OVC004
     FM230300 03010KT 2SM -RASN OVC003
     FM230900 36010KT 2SM -SN OVC003
     FM231100 36013KT 1SM -SN OVC004
     FM231900 34016KT 3SM -SN OVC007=

USA.gov is the U.S. government's official web portal to all federal, state and local government web resources and services.